KPHF/PHF METAR and TAF weather

Enter ICAO airport designator
Station Type Date Time Source
KPHF METAR 2021/09/23 17:54 UTC NOAA

KPHF 231754Z 34004KT 1 1/4SM +RA BR SCT007 BKN014 OVC028 18/18 A2990 RMK AO2 RAB01 SLP124 P0026 60083 T01780178 10239 20178 51011


Station Type Date Time Source
KPHF Decoded METAR 2021/09/23 17:54 UTC NOAA

WILLIAMSBURG INTERNATIONAL AIRPORT , VA, United States (KPHF) 37-08N 76-30W 12M
Sep 23, 2021 - 01:54 PM EDT / 2021.09.23 1754 UTC
Wind: from the NNW (340 degrees) at 5 MPH (4 KT):0
Visibility: 1 1/4 mile(s):0
Sky conditions: overcast
Weather: heavy rain; mist
Precipitation last hour: 0.26 inches
Temperature: 64.0 F (17.8 C)
Dew Point: 64.0 F (17.8 C)
Relative Humidity: 100%
Pressure (altimeter): 29.9 in. Hg (1012 hPa)
Pressure tendency: 0.03 inches (1.1 hPa) higher than three hours ago
ob: KPHF 231754Z 34004KT 1 1/4SM +RA BR SCT007 BKN014 OVC028 18/18 A2990 RMK AO2 RAB01 SLP124 P0026 60083 T01780178 10239 20178 51011
cycle: 18

Station Type Date Time Source
KPHF TAF 2021/09/23 18:59 UTC NOAA

TAF COR KPHF 231759Z 2318/2418 28006KT 6SM -SHRA SCT007 OVC015
TEMPO 2318/2320 2SM SHRA BR BKN007
FM232000 30006KT P6SM VCSH BKN025
FM232300 34005KT P6SM BKN040
FM241400 02009KT P6SM SCT040

Example: see airport list